< < Back
Terminal Aerodrome Forecast


Current Version              Previous Versions:   1  2  3  4  5  6  7  8  9  

Terminal Aerodrome Forecast

692
FTUS44 KMOB 011734
TAFPNS
TAF
KPNS 011734Z 0118/0218 22011G15KT P6SM VCTS FEW035CB FEW120 SCT250
     FM020100 24007KT P6SM FEW040 SCT250
     FM021500 25004KT P6SM SCT250=



Latest METAR

758
SAUS70 KWBC 012300 RRX
MTRPNS
METAR KPNS 012253Z COR 24013G19KT 10SM SCT031 31/22 A3006 RMK AO2 SLP180
T03060222


USA.gov is the U.S. government's official web portal to all federal, state and local government web resources and services.